sensor_id;sensor_type;location;lat;lon;timestamp;temperature;humidity
18577;DHT22;9418;52.694;13.294;2023-03-01T00:00:12;-3.60;86.70
18577;DHT22;9418;52.694;13.294;2023-03-01T00:02:39;-3.50;99.90
18577;DHT22;9418;52.694;13.294;2023-03-01T00:05:06;-3.30;99.90
18577;DHT22;9418;52.694;13.294;2023-03-01T00:07:33;-3.40;22.60
18577;DHT22;9418;52.694;13.294;2023-03-01T00:10:00;-3.50;25.50
18577;DHT22;9418;52.694;13.294;2023-03-01T00:12:28;-3.50;23.30
18577;DHT22;9418;52.694;13.294;2023-03-01T00:14:54;-3.50;24.90
18577;DHT22;9418;52.694;13.294;2023-03-01T00:17:21;-3.50;22.70
18577;DHT22;9418;52.694;13.294;2023-03-01T00:19:47;-3.50;28.40
18577;DHT22;9418;52.694;13.294;2023-03-01T00:22:14;-3.60;21.80
18577;DHT22;9418;52.694;13.294;2023-03-01T00:24:40;-3.50;99.90
18577;DHT22;9418;52.694;13.294;2023-03-01T00:27:07;-3.40;73.60
18577;DHT22;9418;52.694;13.294;2023-03-01T00:29:35;-3.50;23.30
18577;DHT22;9418;52.694;13.294;2023-03-01T00:32:02;-3.60;81.70
18577;DHT22;9418;52.694;13.294;2023-03-01T00:34:28;-3.70;72.30
18577;DHT22;9418;52.694;13.294;2023-03-01T00:36:55;-3.70;22.40
18577;DHT22;9418;52.694;13.294;2023-03-01T00:39:31;-3.70;23.20
18577;DHT22;9418;52.694;13.294;2023-03-01T00:41:59;-3.80;27.60
18577;DHT22;9418;52.694;13.294;2023-03-01T00:44:25;-3.80;25.20
18577;DHT22;9418;52.694;13.294;2023-03-01T00:46:54;-3.90;22.90
18577;DHT22;9418;52.694;13.294;2023-03-01T00:49:21;-3.90;22.40
18577;DHT22;9418;52.694;13.294;2023-03-01T00:51:49;-3.90;23.90
18577;DHT22;9418;52.694;13.294;2023-03-01T00:54:16;-3.90;23.00
18577;DHT22;9418;52.694;13.294;2023-03-01T00:56:42;-3.80;21.10
18577;DHT22;9418;52.694;13.294;2023-03-01T00:59:09;-3.90;24.20
18577;DHT22;9418;52.694;13.294;2023-03-01T01:01:36;-3.80;99.90
18577;DHT22;9418;52.694;13.294;2023-03-01T01:04:06;-3.90;20.30
18577;DHT22;9418;52.694;13.294;2023-03-01T01:06:34;-3.90;22.90
18577;DHT22;9418;52.694;13.294;2023-03-01T01:09:02;-4.00;23.50
18577;DHT22;9418;52.694;13.294;2023-03-01T01:11:30;-4.00;23.40
18577;DHT22;9418;52.694;13.294;2023-03-01T01:13:57;-4.10;24.40
18577;DHT22;9418;52.694;13.294;2023-03-01T01:16:26;-4.10;23.40
18577;DHT22;9418;52.694;13.294;2023-03-01T01:18:53;-4.00;89.00
18577;DHT22;9418;52.694;13.294;2023-03-01T01:21:22;-4.10;98.60
18577;DHT22;9418;52.694;13.294;2023-03-01T01:23:50;-4.00;99.90
18577;DHT22;9418;52.694;13.294;2023-03-01T01:26:18;-4.00;99.90
18577;DHT22;9418;52.694;13.294;2023-03-01T01:28:46;-4.10;74.50
18577;DHT22;9418;52.694;13.294;2023-03-01T01:31:13;-4.20;20.80
18577;DHT22;9418;52.694;13.294;2023-03-01T01:33:39;-4.20;74.00
18577;DHT22;9418;52.694;13.294;2023-03-01T01:36:07;-4.00;99.90
18577;DHT22;9418;52.694;13.294;2023-03-01T01:38:36;-4.10;99.90
18577;DHT22;9418;52.694;13.294;2023-03-01T01:41:04;-4.20;99.90
18577;DHT22;9418;52.694;13.294;2023-03-01T01:43:33;-4.20;99.90
18577;DHT22;9418;52.694;13.294;2023-03-01T01:46:02;-4.20;99.90
18577;DHT22;9418;52.694;13.294;2023-03-01T01:48:37;-4.10;99.90
18577;DHT22;9418;52.694;13.294;2023-03-01T01:51:08;-4.10;99.90
18577;DHT22;9418;52.694;13.294;2023-03-01T01:53:38;-4.20;99.90
18577;DHT22;9418;52.694;13.294;2023-03-01T01:56:08;-4.30;99.90
18577;DHT22;9418;52.694;13.294;2023-03-01T01:58:36;-4.30;90.00
18577;DHT22;9418;52.694;13.294;2023-03-01T02:01:04;-4.40;99.90
18577;DHT22;9418;52.694;13.294;2023-03-01T02:03:32;-4.40;99.90
18577;DHT22;9418;52.694;13.294;2023-03-01T02:06:04;-4.40;99.90
18577;DHT22;9418;52.694;13.294;2023-03-01T02:08:35;-4.40;88.50
18577;DHT22;9418;52.694;13.294;2023-03-01T02:11:04;-4.40;99.90
18577;DHT22;9418;52.694;13.294;2023-03-01T02:13:31;-4.50;99.90
18577;DHT22;9418;52.694;13.294;2023-03-01T02:15:59;-4.40;99.90
18577;DHT22;9418;52.694;13.294;2023-03-01T02:18:25;-4.50;99.90
18577;DHT22;9418;52.694;13.294;2023-03-01T02:21:04;-4.50;99.90
18577;DHT22;9418;52.694;13.294;2023-03-01T02:23:33;-4.50;99.90
18577;DHT22;9418;52.694;13.294;2023-03-01T02:26:10;-4.60;99.90
18577;DHT22;9418;52.694;13.294;2023-03-01T02:28:41;-4.60;99.90
18577;DHT22;9418;52.694;13.294;2023-03-01T02:31:09;-4.50;99.90
18577;DHT22;9418;52.694;13.294;2023-03-01T02:33:54;-4.50;99.90
18577;DHT22;9418;52.694;13.294;2023-03-01T02:36:24;-4.60;99.90
18577;DHT22;9418;52.694;13.294;2023-03-01T02:38:55;-4.60;99.90
18577;DHT22;9418;52.694;13.294;2023-03-01T02:41:24;-4.60;99.90
18577;DHT22;9418;52.694;13.294;2023-03-01T02:43:54;-4.60;99.90
18577;DHT22;9418;52.694;13.294;2023-03-01T02:46:23;-4.40;99.90
18577;DHT22;9418;52.694;13.294;2023-03-01T02:48:52;-4.50;99.90
18577;DHT22;9418;52.694;13.294;2023-03-01T02:51:39;-4.40;99.90
18577;DHT22;9418;52.694;13.294;2023-03-01T02:54:15;-4.40;99.90
18577;DHT22;9418;52.694;13.294;2023-03-01T02:56:44;-4.40;99.90
18577;DHT22;9418;52.694;13.294;2023-03-01T02:59:15;-4.50;99.90
18577;DHT22;9418;52.694;13.294;2023-03-01T03:01:42;-4.50;99.90
18577;DHT22;9418;52.694;13.294;2023-03-01T03:04:11;-4.60;99.90
18577;DHT22;9418;52.694;13.294;2023-03-01T03:06:42;-4.70;99.90
18577;DHT22;9418;52.694;13.294;2023-03-01T03:09:09;-4.70;99.90
18577;DHT22;9418;52.694;13.294;2023-03-01T03:11:36;-4.70;99.90
18577;DHT22;9418;52.694;13.294;2023-03-01T03:14:04;-4.70;99.90
18577;DHT22;9418;52.694;13.294;2023-03-01T03:16:39;-4.70;99.90
18577;DHT22;9418;52.694;13.294;2023-03-01T03:19:06;-4.70;99.90
18577;DHT22;9418;52.694;13.294;2023-03-01T03:21:33;-4.80;94.40
18577;DHT22;9418;52.694;13.294;2023-03-01T03:23:59;-4.80;99.90
18577;DHT22;9418;52.694;13.294;2023-03-01T03:26:26;-4.80;99.90
18577;DHT22;9418;52.694;13.294;2023-03-01T03:28:52;-4.80;99.90
18577;DHT22;9418;52.694;13.294;2023-03-01T03:31:19;-4.80;99.90
18577;DHT22;9418;52.694;13.294;2023-03-01T03:33:47;-4.80;99.90
18577;DHT22;9418;52.694;13.294;2023-03-01T03:36:16;-4.80;99.90
18577;DHT22;9418;52.694;13.294;2023-03-01T03:38:43;-4.80;99.90
18577;DHT22;9418;52.694;13.294;2023-03-01T03:41:11;-4.80;99.90
18577;DHT22;9418;52.694;13.294;2023-03-01T03:43:39;-4.80;79.90
18577;DHT22;9418;52.694;13.294;2023-03-01T03:46:08;-4.90;99.90
18577;DHT22;9418;52.694;13.294;2023-03-01T03:48:36;-4.90;99.90
18577;DHT22;9418;52.694;13.294;2023-03-01T03:51:05;-4.90;99.90
18577;DHT22;9418;52.694;13.294;2023-03-01T03:53:32;-4.90;84.10
18577;DHT22;9418;52.694;13.294;2023-03-01T03:55:59;-5.00;81.10
18577;DHT22;9418;52.694;13.294;2023-03-01T03:58:26;-5.00;99.90
18577;DHT22;9418;52.694;13.294;2023-03-01T04:00:54;-4.80;99.90
18577;DHT22;9418;52.694;13.294;2023-03-01T04:03:22;-4.90;99.90
18577;DHT22;9418;52.694;13.294;2023-03-01T04:05:50;-5.00;99.90
18577;DHT22;9418;52.694;13.294;2023-03-01T04:08:19;-4.90;99.90
18577;DHT22;9418;52.694;13.294;2023-03-01T04:10:47;-5.00;99.90
18577;DHT22;9418;52.694;13.294;2023-03-01T04:13:16;-5.10;99.90
18577;DHT22;9418;52.694;13.294;2023-03-01T04:15:45;-5.10;99.90
18577;DHT22;9418;52.694;13.294;2023-03-01T04:18:13;-5.10;99.90
18577;DHT22;9418;52.694;13.294;2023-03-01T04:20:40;-5.10;99.90
18577;DHT22;9418;52.694;13.294;2023-03-01T04:23:10;-5.10;99.90
18577;DHT22;9418;52.694;13.294;2023-03-01T04:25:41;-5.10;99.90
18577;DHT22;9418;52.694;13.294;2023-03-01T04:28:09;-5.10;99.90
18577;DHT22;9418;52.694;13.294;2023-03-01T04:30:36;-5.10;99.90
18577;DHT22;9418;52.694;13.294;2023-03-01T04:33:04;-5.10;99.90
18577;DHT22;9418;52.694;13.294;2023-03-01T04:35:31;-5.20;99.90
18577;DHT22;9418;52.694;13.294;2023-03-01T04:37:58;-5.20;99.90
18577;DHT22;9418;52.694;13.294;2023-03-01T04:40:24;-5.20;99.90
18577;DHT22;9418;52.694;13.294;2023-03-01T04:42:53;-5.20;99.90
18577;DHT22;9418;52.694;13.294;2023-03-01T04:45:19;-5.20;99.90
18577;DHT22;9418;52.694;13.294;2023-03-01T04:47:46;-5.10;99.90
18577;DHT22;9418;52.694;13.294;2023-03-01T04:50:16;-5.10;99.90
18577;DHT22;9418;52.694;13.294;2023-03-01T04:52:46;-5.10;99.90
18577;DHT22;9418;52.694;13.294;2023-03-01T04:55:13;-5.10;99.90
18577;DHT22;9418;52.694;13.294;2023-03-01T04:57:40;-5.00;99.90
18577;DHT22;9418;52.694;13.294;2023-03-01T05:00:11;-5.00;99.90
18577;DHT22;9418;52.694;13.294;2023-03-01T05:02:47;-5.10;99.90
18577;DHT22;9418;52.694;13.294;2023-03-01T05:05:19;-5.20;99.90
18577;DHT22;9418;52.694;13.294;2023-03-01T05:07:46;-5.20;99.90
18577;DHT22;9418;52.694;13.294;2023-03-01T05:10:13;-5.30;99.90
18577;DHT22;9418;52.694;13.294;2023-03-01T05:12:39;-5.30;99.90
18577;DHT22;9418;52.694;13.294;2023-03-01T05:15:07;-5.40;91.60
18577;DHT22;9418;52.694;13.294;2023-03-01T05:17:35;-5.30;99.90
18577;DHT22;9418;52.694;13.294;2023-03-01T05:20:01;-5.30;99.90
18577;DHT22;9418;52.694;13.294;2023-03-01T05:22:32;-5.30;99.90
18577;DHT22;9418;52.694;13.294;2023-03-01T05:24:58;-5.30;99.90
18577;DHT22;9418;52.694;13.294;2023-03-01T05:27:25;-5.20;99.90
18577;DHT22;9418;52.694;13.294;2023-03-01T05:29:52;-5.30;99.90
18577;DHT22;9418;52.694;13.294;2023-03-01T05:32:18;-5.30;99.90
18577;DHT22;9418;52.694;13.294;2023-03-01T05:34:46;-5.20;99.90
18577;DHT22;9418;52.694;13.294;2023-03-01T05:37:13;-5.20;80.60
18577;DHT22;9418;52.694;13.294;2023-03-01T05:39:40;-5.20;89.10
18577;DHT22;9418;52.694;13.294;2023-03-01T05:42:10;-5.20;99.90
18577;DHT22;9418;52.694;13.294;2023-03-01T05:44:37;-5.20;99.90
18577;DHT22;9418;52.694;13.294;2023-03-01T05:47:04;-5.20;99.90
18577;DHT22;9418;52.694;13.294;2023-03-01T05:49:31;-5.30;99.90
18577;DHT22;9418;52.694;13.294;2023-03-01T05:51:59;-5.30;99.90
18577;DHT22;9418;52.694;13.294;2023-03-01T05:54:26;-5.30;96.50
18577;DHT22;9418;52.694;13.294;2023-03-01T05:56:52;-5.30;99.90
18577;DHT22;9418;52.694;13.294;2023-03-01T05:59:19;-5.30;99.90
18577;DHT22;9418;52.694;13.294;2023-03-01T06:01:45;-5.30;99.90
18577;DHT22;9418;52.694;13.294;2023-03-01T06:04:12;-5.20;99.90
18577;DHT22;9418;52.694;13.294;2023-03-01T06:06:39;-5.20;99.90
18577;DHT22;9418;52.694;13.294;2023-03-01T06:09:07;-5.20;99.90
18577;DHT22;9418;52.694;13.294;2023-03-01T06:11:35;-5.20;99.90
18577;DHT22;9418;52.694;13.294;2023-03-01T06:14:03;-5.20;99.90
18577;DHT22;9418;52.694;13.294;2023-03-01T06:16:29;-5.20;99.90
18577;DHT22;9418;52.694;13.294;2023-03-01T06:18:56;-5.10;99.90
18577;DHT22;9418;52.694;13.294;2023-03-01T06:21:22;-5.10;99.90
18577;DHT22;9418;52.694;13.294;2023-03-01T06:23:49;-5.10;80.00
18577;DHT22;9418;52.694;13.294;2023-03-01T06:26:18;-5.10;23.60
18577;DHT22;9418;52.694;13.294;2023-03-01T06:28:45;-5.10;22.30
18577;DHT22;9418;52.694;13.294;2023-03-01T06:31:11;-5.00;21.40
18577;DHT22;9418;52.694;13.294;2023-03-01T06:33:38;-4.90;85.00
18577;DHT22;9418;52.694;13.294;2023-03-01T06:36:05;-4.90;79.30
18577;DHT22;9418;52.694;13.294;2023-03-01T06:38:33;-4.80;89.30
18577;DHT22;9418;52.694;13.294;2023-03-01T06:40:59;-4.70;85.00
18577;DHT22;9418;52.694;13.294;2023-03-01T06:43:28;-4.50;87.60
18577;DHT22;9418;52.694;13.294;2023-03-01T06:45:54;-4.30;21.10
18577;DHT22;9418;52.694;13.294;2023-03-01T06:48:21;-4.20;32.60
18577;DHT22;9418;52.694;13.294;2023-03-01T06:50:47;-4.10;37.60
18577;DHT22;9418;52.694;13.294;2023-03-01T06:53:14;-4.00;36.20
18577;DHT22;9418;52.694;13.294;2023-03-01T06:55:41;-3.90;33.40
18577;DHT22;9418;52.694;13.294;2023-03-01T06:58:09;-3.80;29.90
18577;DHT22;9418;52.694;13.294;2023-03-01T07:00:37;-3.60;27.50
18577;DHT22;9418;52.694;13.294;2023-03-01T07:03:06;-3.50;35.50
18577;DHT22;9418;52.694;13.294;2023-03-01T07:05:33;-3.40;37.00
18577;DHT22;9418;52.694;13.294;2023-03-01T07:08:00;-3.10;46.10
18577;DHT22;9418;52.694;13.294;2023-03-01T07:10:26;-3.00;51.50
18577;DHT22;9418;52.694;13.294;2023-03-01T07:12:55;-2.90;55.00
18577;DHT22;9418;52.694;13.294;2023-03-01T07:15:22;-2.70;63.90
18577;DHT22;9418;52.694;13.294;2023-03-01T07:17:49;-2.50;70.00
18577;DHT22;9418;52.694;13.294;2023-03-01T07:20:16;-2.40;74.80
18577;DHT22;9418;52.694;13.294;2023-03-01T07:22:43;-2.50;68.30
18577;DHT22;9418;52.694;13.294;2023-03-01T07:25:10;-2.50;58.40
18577;DHT22;9418;52.694;13.294;2023-03-01T07:27:37;-2.40;55.20
18577;DHT22;9418;52.694;13.294;2023-03-01T07:30:04;-2.40;55.90
18577;DHT22;9418;52.694;13.294;2023-03-01T07:32:31;-2.20;60.40
18577;DHT22;9418;52.694;13.294;2023-03-01T07:34:59;-1.90;72.30
18577;DHT22;9418;52.694;13.294;2023-03-01T07:37:26;-1.60;64.10
18577;DHT22;9418;52.694;13.294;2023-03-01T07:39:52;-1.30;69.40
18577;DHT22;9418;52.694;13.294;2023-03-01T07:42:19;-1.00;76.20
18577;DHT22;9418;52.694;13.294;2023-03-01T07:44:45;-0.80;99.90
18577;DHT22;9418;52.694;13.294;2023-03-01T07:47:12;-0.30;99.90
18577;DHT22;9418;52.694;13.294;2023-03-01T07:49:39;0.00;99.90
18577;DHT22;9418;52.694;13.294;2023-03-01T07:52:09;0.50;99.90
18577;DHT22;9418;52.694;13.294;2023-03-01T07:54:36;0.40;99.90
18577;DHT22;9418;52.694;13.294;2023-03-01T07:57:03;0.60;99.90
18577;DHT22;9418;52.694;13.294;2023-03-01T07:59:29;0.80;99.90
18577;DHT22;9418;52.694;13.294;2023-03-01T08:01:57;0.90;98.00
18577;DHT22;9418;52.694;13.294;2023-03-01T08:04:24;1.60;52.60
18577;DHT22;9418;52.694;13.294;2023-03-01T08:06:52;1.90;65.70
18577;DHT22;9418;52.694;13.294;2023-03-01T08:09:20;2.10;70.20
18577;DHT22;9418;52.694;13.294;2023-03-01T08:11:46;2.50;89.30
18577;DHT22;9418;52.694;13.294;2023-03-01T08:14:13;3.00;99.90
18577;DHT22;9418;52.694;13.294;2023-03-01T08:16:39;3.30;99.90
18577;DHT22;9418;52.694;13.294;2023-03-01T08:19:07;3.10;99.90
18577;DHT22;9418;52.694;13.294;2023-03-01T08:21:34;3.20;99.90
18577;DHT22;9418;52.694;13.294;2023-03-01T08:24:01;3.60;99.90
18577;DHT22;9418;52.694;13.294;2023-03-01T08:26:29;3.60;99.90
18577;DHT22;9418;52.694;13.294;2023-03-01T08:28:56;3.90;99.90
18577;DHT22;9418;52.694;13.294;2023-03-01T08:31:24;4.10;99.90
18577;DHT22;9418;52.694;13.294;2023-03-01T08:33:53;4.10;99.90
18577;DHT22;9418;52.694;13.294;2023-03-01T08:36:22;3.70;99.90
18577;DHT22;9418;52.694;13.294;2023-03-01T08:38:48;3.80;99.90
18577;DHT22;9418;52.694;13.294;2023-03-01T08:41:15;3.80;99.90
18577;DHT22;9418;52.694;13.294;2023-03-01T08:43:43;3.60;99.90
18577;DHT22;9418;52.694;13.294;2023-03-01T08:46:10;3.90;99.90
18577;DHT22;9418;52.694;13.294;2023-03-01T08:48:37;4.00;99.90
18577;DHT22;9418;52.694;13.294;2023-03-01T08:51:08;4.30;99.90
18577;DHT22;9418;52.694;13.294;2023-03-01T08:53:34;4.60;99.90
18577;DHT22;9418;52.694;13.294;2023-03-01T08:56:01;4.70;99.90
18577;DHT22;9418;52.694;13.294;2023-03-01T08:58:28;5.20;99.90
18577;DHT22;9418;52.694;13.294;2023-03-01T09:00:56;5.30;1.40
18577;DHT22;9418;52.694;13.294;2023-03-01T09:03:23;5.00;99.90
18577;DHT22;9418;52.694;13.294;2023-03-01T09:05:50;4.90;99.90
18577;DHT22;9418;52.694;13.294;2023-03-01T09:08:17;5.30;1.40
18577;DHT22;9418;52.694;13.294;2023-03-01T09:10:44;5.30;99.90
18577;DHT22;9418;52.694;13.294;2023-03-01T09:13:11;6.00;99.90
18577;DHT22;9418;52.694;13.294;2023-03-01T09:15:38;6.60;99.90
18577;DHT22;9418;52.694;13.294;2023-03-01T09:18:06;7.10;99.90
18577;DHT22;9418;52.694;13.294;2023-03-01T09:20:32;7.70;99.90
18577;DHT22;9418;52.694;13.294;2023-03-01T09:22:59;7.70;99.90
18577;DHT22;9418;52.694;13.294;2023-03-01T09:25:26;8.70;99.90
18577;DHT22;9418;52.694;13.294;2023-03-01T09:27:54;8.70;99.90
18577;DHT22;9418;52.694;13.294;2023-03-01T09:30:22;8.50;99.90
18577;DHT22;9418;52.694;13.294;2023-03-01T09:32:49;9.50;99.90
18577;DHT22;9418;52.694;13.294;2023-03-01T09:35:17;8.90;99.90
18577;DHT22;9418;52.694;13.294;2023-03-01T09:37:45;8.60;99.90
18577;DHT22;9418;52.694;13.294;2023-03-01T09:40:15;10.40;99.90
18577;DHT22;9418;52.694;13.294;2023-03-01T09:42:53;9.60;99.90
18577;DHT22;9418;52.694;13.294;2023-03-01T09:45:27;9.50;99.90
18577;DHT22;9418;52.694;13.294;2023-03-01T09:47:56;9.60;99.90
18577;DHT22;9418;52.694;13.294;2023-03-01T09:50:26;9.70;99.90
18577;DHT22;9418;52.694;13.294;2023-03-01T09:53:00;11.00;99.90
18577;DHT22;9418;52.694;13.294;2023-03-01T09:55:31;9.90;99.90
18577;DHT22;9418;52.694;13.294;2023-03-01T09:58:04;11.40;99.90
18577;DHT22;9418;52.694;13.294;2023-03-01T10:00:37;11.40;99.90
18577;DHT22;9418;52.694;13.294;2023-03-01T10:03:13;11.80;99.90
18577;DHT22;9418;52.694;13.294;2023-03-01T10:05:50;10.60;99.90
18577;DHT22;9418;52.694;13.294;2023-03-01T10:08:37;9.80;99.90
18577;DHT22;9418;52.694;13.294;2023-03-01T10:11:18;9.50;99.90
18577;DHT22;9418;52.694;13.294;2023-03-01T10:13:50;10.30;99.90
18577;DHT22;9418;52.694;13.294;2023-03-01T10:16:23;10.60;99.90
18577;DHT22;9418;52.694;13.294;2023-03-01T10:18:53;10.10;99.90
18577;DHT22;9418;52.694;13.294;2023-03-01T10:21:22;9.90;99.90
18577;DHT22;9418;52.694;13.294;2023-03-01T10:23:51;10.70;99.90
18577;DHT22;9418;52.694;13.294;2023-03-01T10:26:47;11.90;99.90
18577;DHT22;9418;52.694;13.294;2023-03-01T10:29:14;12.40;99.90
18577;DHT22;9418;52.694;13.294;2023-03-01T10:31:43;10.90;99.90
18577;DHT22;9418;52.694;13.294;2023-03-01T10:34:14;10.50;99.90
18577;DHT22;9418;52.694;13.294;2023-03-01T10:36:43;10.70;99.90
18577;DHT22;9418;52.694;13.294;2023-03-01T10:39:18;10.60;99.90
18577;DHT22;9418;52.694;13.294;2023-03-01T10:41:59;10.00;99.90
18577;DHT22;9418;52.694;13.294;2023-03-01T10:44:44;9.30;99.90
18577;DHT22;9418;52.694;13.294;2023-03-01T10:47:17;10.20;99.90
18577;DHT22;9418;52.694;13.294;2023-03-01T10:49:59;10.60;99.90
18577;DHT22;9418;52.694;13.294;2023-03-01T10:52:31;9.70;99.90
18577;DHT22;9418;52.694;13.294;2023-03-01T10:54:59;10.20;99.90
18577;DHT22;9418;52.694;13.294;2023-03-01T10:57:33;10.40;99.90
18577;DHT22;9418;52.694;13.294;2023-03-01T11:00:15;9.80;99.90
18577;DHT22;9418;52.694;13.294;2023-03-01T11:02:48;9.20;99.90
18577;DHT22;9418;52.694;13.294;2023-03-01T11:05:21;10.10;99.90
18577;DHT22;9418;52.694;13.294;2023-03-01T11:07:52;9.70;99.90
18577;DHT22;9418;52.694;13.294;2023-03-01T11:10:21;9.40;99.90
18577;DHT22;9418;52.694;13.294;2023-03-01T11:12:48;9.10;99.90
18577;DHT22;9418;52.694;13.294;2023-03-01T11:15:25;8.90;99.90
18577;DHT22;9418;52.694;13.294;2023-03-01T11:17:52;9.00;99.90
18577;DHT22;9418;52.694;13.294;2023-03-01T11:20:26;8.80;99.90
18577;DHT22;9418;52.694;13.294;2023-03-01T11:22:56;8.70;99.90
18577;DHT22;9418;52.694;13.294;2023-03-01T11:25:26;9.70;99.90
18577;DHT22;9418;52.694;13.294;2023-03-01T11:27:53;9.10;99.90
18577;DHT22;9418;52.694;13.294;2023-03-01T11:30:24;9.00;99.90
18577;DHT22;9418;52.694;13.294;2023-03-01T11:33:01;9.10;99.90
18577;DHT22;9418;52.694;13.294;2023-03-01T11:35:29;8.80;99.90
18577;DHT22;9418;52.694;13.294;2023-03-01T11:38:08;9.70;99.90
18577;DHT22;9418;52.694;13.294;2023-03-01T11:40:40;10.10;99.90
18577;DHT22;9418;52.694;13.294;2023-03-01T11:43:15;9.00;99.90
18577;DHT22;9418;52.694;13.294;2023-03-01T11:45:54;9.30;99.90
18577;DHT22;9418;52.694;13.294;2023-03-01T11:48:39;9.20;99.90
18577;DHT22;9418;52.694;13.294;2023-03-01T11:51:19;9.70;99.90
18577;DHT22;9418;52.694;13.294;2023-03-01T11:53:58;9.50;99.90
18577;DHT22;9418;52.694;13.294;2023-03-01T11:56:31;9.10;99.90
18577;DHT22;9418;52.694;13.294;2023-03-01T12:08:20;8.80;99.90
18577;DHT22;9418;52.694;13.294;2023-03-01T12:10:57;9.10;99.90
18577;DHT22;9418;52.694;13.294;2023-03-01T12:13:47;9.10;99.90
18577;DHT22;9418;52.694;13.294;2023-03-01T12:16:23;9.30;99.90
18577;DHT22;9418;52.694;13.294;2023-03-01T12:19:09;9.40;99.90
18577;DHT22;9418;52.694;13.294;2023-03-01T12:21:53;9.80;99.90
18577;DHT22;9418;52.694;13.294;2023-03-01T12:27:37;10.70;99.90
18577;DHT22;9418;52.694;13.294;2023-03-01T12:30:17;11.50;99.90
18577;DHT22;9418;52.694;13.294;2023-03-01T12:32:53;11.70;99.90
18577;DHT22;9418;52.694;13.294;2023-03-01T12:35:52;10.60;99.90
18577;DHT22;9418;52.694;13.294;2023-03-01T12:38:32;10.60;99.90
18577;DHT22;9418;52.694;13.294;2023-03-01T12:41:23;10.60;99.90
18577;DHT22;9418;52.694;13.294;2023-03-01T12:44:01;11.10;99.90
18577;DHT22;9418;52.694;13.294;2023-03-01T12:46:39;10.70;99.90
18577;DHT22;9418;52.694;13.294;2023-03-01T12:49:10;10.40;99.90
18577;DHT22;9418;52.694;13.294;2023-03-01T12:51:40;10.00;99.90
18577;DHT22;9418;52.694;13.294;2023-03-01T12:54:15;9.90;99.90
18577;DHT22;9418;52.694;13.294;2023-03-01T12:56:43;11.10;99.90
18577;DHT22;9418;52.694;13.294;2023-03-01T12:59:21;11.00;99.90
18577;DHT22;9418;52.694;13.294;2023-03-01T13:01:52;10.70;99.90
18577;DHT22;9418;52.694;13.294;2023-03-01T13:04:27;10.50;99.90
18577;DHT22;9418;52.694;13.294;2023-03-01T13:07:04;10.40;99.90
18577;DHT22;9418;52.694;13.294;2023-03-01T13:09:40;11.00;99.90
18577;DHT22;9418;52.694;13.294;2023-03-01T13:12:46;11.20;99.90
18577;DHT22;9418;52.694;13.294;2023-03-01T13:15:29;12.20;96.10
18577;DHT22;9418;52.694;13.294;2023-03-01T13:17:57;12.50;87.60
18577;DHT22;9418;52.694;13.294;2023-03-01T13:20:27;11.80;99.90
18577;DHT22;9418;52.694;13.294;2023-03-01T13:23:09;11.30;99.90
18577;DHT22;9418;52.694;13.294;2023-03-01T13:26:06;12.10;86.60
18577;DHT22;9418;52.694;13.294;2023-03-01T13:28:51;13.00;71.80
18577;DHT22;9418;52.694;13.294;2023-03-01T13:34:44;12.80;88.80
18577;DHT22;9418;52.694;13.294;2023-03-01T13:37:29;12.90;85.70
18577;DHT22;9418;52.694;13.294;2023-03-01T13:40:02;12.90;86.60
18577;DHT22;9418;52.694;13.294;2023-03-01T13:42:39;13.70;95.30
18577;DHT22;9418;52.694;13.294;2023-03-01T13:45:17;12.60;99.70
18577;DHT22;9418;52.694;13.294;2023-03-01T13:47:45;12.50;99.90
18577;DHT22;9418;52.694;13.294;2023-03-01T13:50:20;12.40;99.90
18577;DHT22;9418;52.694;13.294;2023-03-01T13:52:52;11.50;99.90
18577;DHT22;9418;52.694;13.294;2023-03-01T13:55:22;12.70;88.80
18577;DHT22;9418;52.694;13.294;2023-03-01T13:57:53;13.30;86.30
18577;DHT22;9418;52.694;13.294;2023-03-01T14:00:34;13.60;99.90
18577;DHT22;9418;52.694;13.294;2023-03-01T14:03:10;13.70;99.90
18577;DHT22;9418;52.694;13.294;2023-03-01T14:05:41;13.90;97.90
18577;DHT22;9418;52.694;13.294;2023-03-01T14:08:22;14.50;89.10
18577;DHT22;9418;52.694;13.294;2023-03-01T14:14:30;13.00;99.90
18577;DHT22;9418;52.694;13.294;2023-03-01T14:17:10;12.10;99.90
18577;DHT22;9418;52.694;13.294;2023-03-01T14:19:41;11.90;99.90
18577;DHT22;9418;52.694;13.294;2023-03-01T14:22:18;11.60;99.90
18577;DHT22;9418;52.694;13.294;2023-03-01T14:24:48;11.70;99.90
18577;DHT22;9418;52.694;13.294;2023-03-01T14:27:16;11.80;99.90
18577;DHT22;9418;52.694;13.294;2023-03-01T14:29:43;11.20;99.90
18577;DHT22;9418;52.694;13.294;2023-03-01T14:32:12;11.30;99.90
18577;DHT22;9418;52.694;13.294;2023-03-01T14:34:43;11.50;99.90
18577;DHT22;9418;52.694;13.294;2023-03-01T14:37:14;11.20;99.90
18577;DHT22;9418;52.694;13.294;2023-03-01T14:39:43;11.30;99.90
18577;DHT22;9418;52.694;13.294;2023-03-01T14:42:12;11.10;99.90
18577;DHT22;9418;52.694;13.294;2023-03-01T14:44:41;11.30;99.90
18577;DHT22;9418;52.694;13.294;2023-03-01T14:47:12;11.30;99.90
18577;DHT22;9418;52.694;13.294;2023-03-01T14:49:40;11.00;99.90
18577;DHT22;9418;52.694;13.294;2023-03-01T14:52:20;10.90;99.90
18577;DHT22;9418;52.694;13.294;2023-03-01T14:54:50;11.20;99.90
18577;DHT22;9418;52.694;13.294;2023-03-01T14:57:19;11.50;99.90
18577;DHT22;9418;52.694;13.294;2023-03-01T14:59:48;11.30;99.90
18577;DHT22;9418;52.694;13.294;2023-03-01T15:02:18;11.20;99.90
18577;DHT22;9418;52.694;13.294;2023-03-01T15:04:48;11.50;99.90
18577;DHT22;9418;52.694;13.294;2023-03-01T15:07:15;12.10;99.90
18577;DHT22;9418;52.694;13.294;2023-03-01T15:09:44;12.00;99.90
18577;DHT22;9418;52.694;13.294;2023-03-01T15:12:37;11.70;99.90
18577;DHT22;9418;52.694;13.294;2023-03-01T15:15:20;10.80;99.90
18577;DHT22;9418;52.694;13.294;2023-03-01T15:17:52;10.70;99.90
18577;DHT22;9418;52.694;13.294;2023-03-01T15:20:22;10.40;99.90
18577;DHT22;9418;52.694;13.294;2023-03-01T15:22:51;10.20;99.90
18577;DHT22;9418;52.694;13.294;2023-03-01T15:25:22;10.20;99.90
18577;DHT22;9418;52.694;13.294;2023-03-01T15:27:50;10.10;99.90
18577;DHT22;9418;52.694;13.294;2023-03-01T15:30:20;10.10;99.90
18577;DHT22;9418;52.694;13.294;2023-03-01T15:32:47;9.90;99.90
18577;DHT22;9418;52.694;13.294;2023-03-01T15:35:38;9.60;99.90
18577;DHT22;9418;52.694;13.294;2023-03-01T15:38:25;9.50;99.90
18577;DHT22;9418;52.694;13.294;2023-03-01T15:40:54;9.50;99.90
18577;DHT22;9418;52.694;13.294;2023-03-01T15:43:38;9.50;99.90
18577;DHT22;9418;52.694;13.294;2023-03-01T15:46:22;9.40;99.90
18577;DHT22;9418;52.694;13.294;2023-03-01T15:48:52;9.30;99.90
18577;DHT22;9418;52.694;13.294;2023-03-01T15:51:28;9.00;99.90
18577;DHT22;9418;52.694;13.294;2023-03-01T15:53:56;8.70;99.90
18577;DHT22;9418;52.694;13.294;2023-03-01T15:56:26;8.50;99.90
18577;DHT22;9418;52.694;13.294;2023-03-01T15:58:52;8.40;99.90
18577;DHT22;9418;52.694;13.294;2023-03-01T16:01:19;8.20;99.90
18577;DHT22;9418;52.694;13.294;2023-03-01T16:03:46;8.00;99.90
18577;DHT22;9418;52.694;13.294;2023-03-01T16:06:12;7.70;99.90
18577;DHT22;9418;52.694;13.294;2023-03-01T16:08:39;7.60;99.90
18577;DHT22;9418;52.694;13.294;2023-03-01T16:11:14;7.40;99.90
18577;DHT22;9418;52.694;13.294;2023-03-01T16:13:43;7.20;99.90